Time;durP1;ratioP1;P1;durP2;ratioP2;P2;SDS_P1;SDS_P2;PMS_P1;PMS_P2;Temp;Humidity;BMP_temperature;BMP_pressure;BME280_temperature;BME280_humidity;BME280_pressure;Samples;Min_cycle;Max_cycle;Signal;HPM_P1;HPM_P2
2022/06/30 00:00:13;;;;;;;3.63;3.30;;;19.70;99.90;;;;;;5009136;28;20403;-51
2022/06/30 00:02:44;;;;;;;2.83;2.50;;;19.80;99.90;;;;;;5012498;28;20516;-49
2022/06/30 00:05:11;;;;;;;4.43;2.73;;;19.80;99.90;;;;;;5013772;28;20416;-57
2022/06/30 00:07:39;;;;;;;3.87;3.47;;;19.50;99.90;;;;;;5011699;28;20619;-58
2022/06/30 00:10:11;;;;;;;3.70;2.80;;;19.30;99.90;;;;;;5011798;28;20433;-57
2022/06/30 00:12:42;;;;;;;5.00;3.97;;;19.00;99.90;;;;;;5011976;28;20424;-53
2022/06/30 00:15:09;;;;;;;6.97;4.10;;;18.80;99.90;;;;;;5012426;28;20688;-51
2022/06/30 00:17:37;;;;;;;4.30;3.73;;;18.60;99.90;;;;;;5010851;28;20435;-51
2022/06/30 00:20:05;;;;;;;5.60;4.30;;;18.70;99.90;;;;;;5012176;28;20443;-57
2022/06/30 00:22:32;;;;;;;6.10;3.50;;;18.60;99.90;;;;;;5012066;28;20490;-58
2022/06/30 00:24:59;;;;;;;6.07;4.53;;;18.60;99.90;;;;;;5012469;28;20581;-50
2022/06/30 00:27:27;;;;;;;7.10;4.07;;;18.60;99.90;;;;;;5012399;28;20416;-51
2022/06/30 00:29:54;;;;;;;6.73;4.10;;;18.60;99.90;;;;;;5012351;28;20442;-49
2022/06/30 00:32:21;;;;;;;4.97;3.73;;;18.70;99.90;;;;;;5019036;28;20843;-56
2022/06/30 00:34:48;;;;;;;4.33;3.93;;;18.70;99.90;;;;;;5013887;28;20431;-55
2022/06/30 00:37:18;;;;;;;6.63;5.37;;;18.60;99.90;;;;;;5021091;28;20412;-58
2022/06/30 00:39:46;;;;;;;5.50;4.90;;;18.70;99.90;;;;;;5022020;28;20424;-57
2022/06/30 00:42:13;;;;;;;7.20;4.77;;;18.70;99.90;;;;;;5018693;28;20451;-48
2022/06/30 00:44:40;;;;;;;6.00;4.20;;;18.70;99.90;;;;;;5012137;28;20489;-55
2022/06/30 00:47:08;;;;;;;7.17;4.97;;;18.70;99.90;;;;;;5012310;28;20435;-50
2022/06/30 00:49:35;;;;;;;7.40;5.27;;;18.70;99.90;;;;;;5011922;28;20417;-50
2022/06/30 00:52:04;;;;;;;8.10;4.37;;;19.00;99.90;;;;;;5012053;28;20681;-49
2022/06/30 00:54:33;;;;;;;6.10;4.60;;;19.10;99.90;;;;;;5011863;28;20421;-50
2022/06/30 00:57:04;;;;;;;10.60;5.40;;;19.30;99.90;;;;;;5008202;28;20474;-52
2022/06/30 00:59:33;;;;;;;6.13;5.53;;;19.50;99.90;;;;;;5015269;28;20420;-56
2022/06/30 01:02:02;;;;;;;5.77;4.97;;;19.80;99.90;;;;;;5011139;28;20486;-49
2022/06/30 01:04:33;;;;;;;10.53;5.87;;;19.60;99.90;;;;;;5019555;28;20457;-51
2022/06/30 01:07:01;;;;;;;6.80;6.10;;;19.50;99.90;;;;;;5018735;28;20785;-52
2022/06/30 01:15:06;;;;;;;9.30;6.10;;;19.40;99.90;;;;;;5014319;28;20415;-54
2022/06/30 01:17:35;;;;;;;15.50;5.50;;;19.50;99.90;;;;;;5013793;28;20478;-60
2022/06/30 01:20:06;;;;;;;8.03;7.13;;;19.60;99.90;;;;;;5019307;28;20468;-58
2022/06/30 01:22:33;;;;;;;10.50;6.40;;;19.70;99.90;;;;;;5022338;28;20478;-58
2022/06/30 01:25:01;;;;;;;8.00;5.60;;;19.50;99.90;;;;;;5023138;28;20592;-51
2022/06/30 01:27:28;;;;;;;11.27;6.17;;;19.10;99.90;;;;;;5038337;28;20476;-53
2022/06/30 01:29:57;;;;;;;5.93;5.30;;;18.80;99.90;;;;;;5023387;28;20799;-54
2022/06/30 01:32:25;;;;;;;7.40;6.33;;;18.80;99.90;;;;;;5022464;28;20515;-57
2022/06/30 01:34:52;;;;;;;9.97;6.77;;;18.70;99.90;;;;;;5018237;28;20486;-53
2022/06/30 01:37:20;;;;;;;6.10;4.83;;;18.70;99.90;;;;;;5023427;28;20654;-55
2022/06/30 01:39:47;;;;;;;8.37;6.17;;;18.60;99.90;;;;;;5014701;28;20412;-53
2022/06/30 01:42:14;;;;;;;6.23;5.60;;;18.50;99.90;;;;;;5023113;28;20486;-49
2022/06/30 01:44:42;;;;;;;7.77;6.23;;;18.50;99.90;;;;;;5022904;28;20437;-54
2022/06/30 01:47:10;;;;;;;9.60;7.13;;;18.60;99.90;;;;;;5023488;28;20423;-53
2022/06/30 01:49:38;;;;;;;8.27;6.87;;;18.50;99.90;;;;;;5014647;28;20489;-56
2022/06/30 01:52:05;;;;;;;10.07;6.97;;;18.50;99.90;;;;;;5015286;28;20462;-52
2022/06/30 01:54:32;;;;;;;8.37;5.43;;;18.50;99.90;;;;;;5014544;28;20876;-56
2022/06/30 01:57:00;;;;;;;6.30;5.10;;;18.50;99.90;;;;;;5014559;28;20467;-58
2022/06/30 01:59:28;;;;;;;6.27;5.57;;;18.50;99.90;;;;;;5013413;28;20434;-55
2022/06/30 02:01:55;;;;;;;9.40;6.40;;;18.50;99.90;;;;;;5015861;28;20446;-55
2022/06/30 02:07:08;;;;;;;7.50;5.10;;;18.50;99.90;;;;;;5017374;28;20805;-53
2022/06/30 02:09:35;;;;;;;6.20;5.50;;;18.50;99.90;;;;;;5022180;28;20689;-53
2022/06/30 02:14:49;;;;;;;8.53;5.50;;;18.40;99.90;;;;;;5010369;28;20450;-55
2022/06/30 02:17:16;;;;;;;7.17;6.47;;;18.30;99.90;;;;;;5011005;28;20463;-53
2022/06/30 02:19:44;;;;;;;6.47;5.97;;;18.30;99.90;;;;;;5018678;28;20464;-55
2022/06/30 02:22:11;;;;;;;6.57;5.97;;;18.30;99.90;;;;;;5010664;28;20454;-53
2022/06/30 02:24:38;;;;;;;5.83;5.20;;;18.30;99.90;;;;;;5013397;28;20788;-56
2022/06/30 02:27:06;;;;;;;6.10;5.50;;;18.30;99.90;;;;;;5015779;28;20717;-57
2022/06/30 02:29:33;;;;;;;6.03;5.43;;;18.30;99.90;;;;;;5012642;28;20412;-51
2022/06/30 02:32:00;;;;;;;8.70;7.03;;;18.30;99.90;;;;;;5015566;28;20468;-57
2022/06/30 02:34:31;;;;;;;6.97;5.93;;;18.30;99.90;;;;;;5011889;28;20410;-58
2022/06/30 02:36:58;;;;;;;9.67;6.47;;;18.40;99.90;;;;;;5016358;28;20566;-57
2022/06/30 02:39:25;;;;;;;8.50;7.37;;;18.40;99.90;;;;;;5011221;28;20885;-58
2022/06/30 02:41:52;;;;;;;6.70;6.00;;;18.30;99.90;;;;;;5013676;28;20446;-58
2022/06/30 02:44:20;;;;;;;8.13;5.93;;;18.40;99.90;;;;;;5014027;28;20489;-53
2022/06/30 02:46:50;;;;;;;4.80;4.40;;;18.40;99.90;;;;;;5006622;28;20457;-56
2022/06/30 02:49:19;;;;;;;7.10;6.43;;;18.40;99.90;;;;;;5014010;28;20677;-53
2022/06/30 02:51:46;;;;;;;6.23;5.10;;;18.40;99.90;;;;;;5013026;28;20496;-57
2022/06/30 02:54:14;;;;;;;6.30;5.57;;;18.40;99.90;;;;;;5014352;28;20489;-54
2022/06/30 02:56:42;;;;;;;9.10;6.00;;;18.50;99.90;;;;;;5012268;28;20449;-57
2022/06/30 02:59:09;;;;;;;7.47;5.80;;;18.50;99.90;;;;;;5012573;28;20460;-55
2022/06/30 03:01:36;;;;;;;7.10;6.40;;;18.70;99.90;;;;;;5012711;28;20493;-56
2022/06/30 03:04:04;;;;;;;6.30;5.80;;;18.80;99.90;;;;;;5013041;28;20481;-55
2022/06/30 03:06:33;;;;;;;6.60;5.90;;;18.80;99.90;;;;;;5012514;28;20409;-57
2022/06/30 03:09:00;;;;;;;5.90;5.37;;;18.70;99.90;;;;;;5020492;28;20465;-56
2022/06/30 03:11:28;;;;;;;6.60;6.00;;;18.70;99.90;;;;;;5020361;28;20521;-52
2022/06/30 03:14:19;;;;;;;8.20;6.67;;;18.60;99.90;;;;;;5019295;28;20408;-51
2022/06/30 03:16:46;;;;;;;7.67;6.50;;;18.50;99.90;;;;;;5008723;28;20497;-54
2022/06/30 03:19:20;;;;;;;7.90;7.10;;;18.70;99.90;;;;;;5015880;28;20451;-53
2022/06/30 03:21:47;;;;;;;6.83;6.13;;;18.80;99.90;;;;;;5008504;28;20444;-56
2022/06/30 03:24:15;;;;;;;5.70;5.20;;;19.10;99.90;;;;;;5008813;28;20489;-54
2022/06/30 03:26:42;;;;;;;6.40;5.80;;;19.30;99.90;;;;;;5016723;28;20658;-52
2022/06/30 03:29:09;;;;;;;6.73;6.00;;;19.60;99.90;;;;;;5008864;28;20416;-52
2022/06/30 03:31:37;;;;;;;6.10;5.50;;;19.70;99.90;;;;;;5016807;28;20492;-55
2022/06/30 03:34:04;;;;;;;6.60;5.53;;;19.70;99.90;;;;;;5007924;28;20597;-51
2022/06/30 03:36:32;;;;;;;5.67;5.17;;;19.80;99.90;;;;;;5016567;28;20438;-55
2022/06/30 03:38:59;;;;;;;6.23;5.63;;;19.80;99.90;;;;;;5008343;28;20526;-54
2022/06/30 03:41:27;;;;;;;6.80;6.17;;;19.70;99.90;;;;;;5009541;28;20496;-52
2022/06/30 03:43:54;;;;;;;5.50;5.00;;;19.70;99.90;;;;;;5014006;28;20504;-55
2022/06/30 03:46:21;;;;;;;6.03;5.53;;;19.70;99.90;;;;;;5008260;28;20450;-55
2022/06/30 03:48:49;;;;;;;8.20;7.40;;;19.70;99.90;;;;;;5015985;28;20786;-53
2022/06/30 03:51:16;;;;;;;7.20;6.53;;;19.90;99.90;;;;;;5008169;28;20760;-51
2022/06/30 03:53:44;;;;;;;8.03;7.23;;;20.00;99.90;;;;;;5016133;28;20785;-55
2022/06/30 03:56:11;;;;;;;7.83;7.03;;;20.00;99.90;;;;;;5007519;28;20409;-53
2022/06/30 03:58:39;;;;;;;8.10;7.30;;;20.20;99.90;;;;;;5010345;28;20422;-51
2022/06/30 04:01:06;;;;;;;10.53;7.17;;;20.20;99.90;;;;;;5013270;28;20414;-52
2022/06/30 04:03:34;;;;;;;7.80;6.50;;;20.30;99.90;;;;;;5010078;28;20537;-56
2022/06/30 04:06:01;;;;;;;7.83;7.03;;;20.20;99.90;;;;;;5013753;28;20425;-50
2022/06/30 04:08:28;;;;;;;9.07;6.40;;;20.20;99.90;;;;;;5017024;28;20405;-56
2022/06/30 04:11:01;;;;;;;7.80;5.93;;;20.40;99.90;;;;;;5019289;28;20439;-52
2022/06/30 04:13:32;;;;;;;6.80;6.20;;;20.40;99.90;;;;;;5017503;28;20440;-55
2022/06/30 04:15:59;;;;;;;6.50;5.90;;;20.40;99.90;;;;;;5033401;28;20600;-55
2022/06/30 04:18:30;;;;;;;8.00;6.73;;;20.30;99.90;;;;;;5022242;28;20517;-57
2022/06/30 04:20:57;;;;;;;8.73;7.83;;;20.00;99.90;;;;;;5031424;28;20739;-58
2022/06/30 04:23:24;;;;;;;15.57;7.00;;;20.20;99.90;;;;;;5019914;28;20658;-52
2022/06/30 04:25:52;;;;;;;8.20;6.87;;;20.40;99.90;;;;;;5022942;28;20411;-53
2022/06/30 04:28:19;;;;;;;9.33;7.77;;;20.60;99.90;;;;;;5023193;28;20409;-52
2022/06/30 04:33:32;;;;;;;8.23;6.83;;;21.00;99.90;;;;;;5018447;28;20465;-55
2022/06/30 04:36:00;;;;;;;6.20;5.60;;;21.00;99.90;;;;;;5012639;28;20832;-50
2022/06/30 04:38:30;;;;;;;8.63;7.80;;;21.10;99.90;;;;;;5024832;28;20434;-56
2022/06/30 04:43:43;;;;;;;8.43;7.73;;;21.30;99.90;;;;;;5018449;28;20481;-54
2022/06/30 04:46:10;;;;;;;9.10;8.20;;;21.20;99.90;;;;;;5019320;28;20409;-57
2022/06/30 04:48:40;;;;;;;8.33;7.43;;;21.20;99.90;;;;;;5019276;28;20460;-53
2022/06/30 04:51:08;;;;;;;8.60;7.80;;;21.30;99.90;;;;;;5018995;28;20434;-56
2022/06/30 04:53:35;;;;;;;10.00;8.87;;;21.30;99.90;;;;;;5018273;28;20519;-54
2022/06/30 04:56:02;;;;;;;9.33;6.93;;;21.40;99.90;;;;;;5018247;28;20565;-54
2022/06/30 04:58:30;;;;;;;8.10;7.40;;;21.60;99.90;;;;;;5018481;28;20417;-54
2022/06/30 05:00:57;;;;;;;8.43;7.63;;;21.80;99.90;;;;;;5017086;28;20422;-51
2022/06/30 05:03:25;;;;;;;9.03;7.60;;;21.70;99.90;;;;;;5014947;28;20508;-53
2022/06/30 05:05:53;;;;;;;9.47;8.53;;;22.00;99.90;;;;;;5016119;28;20735;-56
2022/06/30 05:08:21;;;;;;;9.60;8.60;;;22.30;99.90;;;;;;5013655;28;20733;-52
2022/06/30 05:10:48;;;;;;;8.50;7.60;;;22.60;99.90;;;;;;5009541;28;20411;-52
2022/06/30 05:13:16;;;;;;;9.60;6.00;;;22.80;99.90;;;;;;5017503;28;20431;-56
2022/06/30 05:15:46;;;;;;;7.00;6.40;;;22.70;99.90;;;;;;5011816;28;20413;-58
2022/06/30 05:18:15;;;;;;;7.07;6.37;;;22.70;99.90;;;;;;5013029;28;20436;-57
2022/06/30 05:20:42;;;;;;;7.10;5.93;;;22.50;99.90;;;;;;5021676;28;20412;-55
2022/06/30 05:23:10;;;;;;;10.20;6.93;;;22.50;99.90;;;;;;5010833;28;20439;-54
2022/06/30 05:28:23;;;;;;;7.27;6.57;;;22.20;99.90;;;;;;5010197;28;20410;-55
2022/06/30 05:30:51;;;;;;;7.23;5.73;;;22.20;99.90;;;;;;5018249;28;20446;-55
2022/06/30 05:33:22;;;;;;;7.43;6.40;;;22.30;99.90;;;;;;5021204;28;20511;-53
2022/06/30 05:35:53;;;;;;;9.00;7.33;;;22.30;99.90;;;;;;5026636;28;20448;-54
2022/06/30 05:38:20;;;;;;;9.30;6.60;;;22.30;99.90;;;;;;5018855;28;20466;-50
2022/06/30 05:40:48;;;;;;;6.73;6.07;;;22.30;99.90;;;;;;5029350;28;20440;-52
2022/06/30 05:43:16;;;;;;;6.47;5.90;;;22.60;99.90;;;;;;5017684;28;20522;-52
2022/06/30 05:45:46;;;;;;;6.17;5.57;;;22.80;99.90;;;;;;5018309;28;20437;-54
2022/06/30 05:48:13;;;;;;;6.17;5.67;;;22.90;99.90;;;;;;5017848;28;20790;-55
2022/06/30 05:50:40;;;;;;;7.40;6.47;;;23.10;99.90;;;;;;5024860;28;20422;-52
2022/06/30 05:53:07;;;;;;;8.30;6.10;;;23.20;99.90;;;;;;5018419;28;20436;-53
2022/06/30 05:55:35;;;;;;;6.93;6.27;;;23.40;99.90;;;;;;5018163;28;20889;-51
2022/06/30 05:58:06;;;;;;;8.80;5.90;;;23.70;99.90;;;;;;5014481;28;20647;-53
2022/06/30 06:00:34;;;;;;;6.63;6.03;;;23.70;99.90;;;;;;5018884;28;20438;-55
2022/06/30 06:03:02;;;;;;;6.37;5.77;;;23.70;99.90;;;;;;5014565;28;20469;-53
2022/06/30 06:05:30;;;;;;;5.13;4.67;;;23.80;99.90;;;;;;5029070;28;20476;-52
2022/06/30 06:08:06;;;;;;;8.70;5.70;;;23.70;99.90;;;;;;5021186;28;20415;-56
2022/06/30 06:10:33;;;;;;;10.67;6.23;;;24.00;99.90;;;;;;5013448;28;20755;-54
2022/06/30 06:13:01;;;;;;;8.67;5.30;;;24.60;99.90;;;;;;5014499;28;20454;-52
2022/06/30 06:15:28;;;;;;;6.37;5.20;;;25.20;99.90;;;;;;5014797;28;20667;-58
2022/06/30 06:17:58;;;;;;;6.67;5.57;;;25.00;99.90;;;;;;5014609;28;20445;-50
2022/06/30 06:20:26;;;;;;;5.90;5.43;;;25.10;99.90;;;;;;5014706;28;20431;-53
2022/06/30 06:22:53;;;;;;;5.77;4.47;;;25.30;99.90;;;;;;5014377;28;20470;-57
2022/06/30 06:25:20;;;;;;;5.23;4.73;;;25.60;99.90;;;;;;5014264;28;20829;-56
2022/06/30 06:30:35;;;;;;;7.70;3.67;;;26.00;99.90;;;;;;5013212;28;20458;-55
2022/06/30 06:33:02;;;;;;;4.20;3.80;;;26.20;99.90;;;;;;5013803;28;20502;-49
2022/06/30 06:35:30;;;;;;;5.53;4.50;;;26.50;99.90;;;;;;5013377;28;20450;-49
2022/06/30 06:37:57;;;;;;;4.57;4.27;;;26.90;99.90;;;;;;5013656;28;20439;-53
2022/06/30 06:40:24;;;;;;;5.20;3.63;;;27.30;99.90;;;;;;5013466;28;20443;-52
2022/06/30 06:42:51;;;;;;;3.97;3.60;;;27.50;99.90;;;;;;5014408;28;20463;-54
2022/06/30 06:45:19;;;;;;;3.73;3.43;;;27.80;99.90;;;;;;5012889;28;20478;-50
2022/06/30 06:47:47;;;;;;;6.60;3.43;;;28.30;99.90;;;;;;5013259;28;20484;-53
2022/06/30 06:50:14;;;;;;;8.40;3.30;;;28.70;99.90;;;;;;5014417;28;20446;-50
2022/06/30 06:52:41;;;;;;;5.00;4.50;;;29.70;99.90;;;;;;5013962;28;20462;-54
2022/06/30 06:55:09;;;;;;;3.83;3.50;;;30.70;99.90;;;;;;5014243;28;20493;-56
2022/06/30 06:57:38;;;;;;;4.50;3.73;;;31.50;99.90;;;;;;5011427;28;20434;-56
2022/06/30 07:00:12;;;;;;;3.43;3.13;;;31.60;99.90;;;;;;5016778;28;20446;-50
2022/06/30 07:02:40;;;;;;;3.53;3.23;;;30.90;99.90;;;;;;5019729;28;20521;-54
2022/06/30 07:05:08;;;;;;;4.17;3.00;;;30.60;99.90;;;;;;5026740;28;20485;-53
2022/06/30 07:07:36;;;;;;;3.50;3.20;;;30.80;99.90;;;;;;5025896;28;20439;-47
2022/06/30 07:10:07;;;;;;;3.73;3.37;;;31.30;99.90;;;;;;5021433;28;20450;-48
2022/06/30 07:12:35;;;;;;;3.57;3.27;;;32.40;99.90;;;;;;5021855;28;20749;-54
2022/06/30 07:15:03;;;;;;;3.50;3.00;;;33.50;99.90;;;;;;5019883;28;20446;-55
2022/06/30 07:17:37;;;;;;;3.80;3.10;;;35.00;99.90;;;;;;5023614;28;20683;-57
2022/06/30 07:20:05;;;;;;;3.87;3.60;;;35.60;99.90;;;;;;5019759;28;20470;-53
2022/06/30 07:22:32;;;;;;;4.60;4.20;;;35.40;99.90;;;;;;5011255;28;20462;-57
2022/06/30 07:25:00;;;;;;;3.83;3.43;;;35.50;98.90;;;;;;5012673;28;20696;-55
2022/06/30 07:27:30;;;;;;;13.13;4.50;;;36.70;96.10;;;;;;5011404;28;20431;-55
2022/06/30 07:29:57;;;;;;;6.10;3.90;;;35.30;97.00;;;;;;5013039;28;20431;-55
2022/06/30 07:32:25;;;;;;;5.70;3.87;;;33.50;99.90;;;;;;5012855;28;20509;-50
2022/06/30 07:34:54;;;;;;;4.57;2.97;;;34.40;99.90;;;;;;5016646;28;20438;-48
2022/06/30 07:37:22;;;;;;;4.20;3.80;;;35.40;99.80;;;;;;5012974;28;20467;-51
2022/06/30 07:39:49;;;;;;;3.47;3.17;;;36.00;96.90;;;;;;5012069;28;20442;-55
2022/06/30 07:42:16;;;;;;;5.47;3.53;;;37.20;93.00;;;;;;5012773;28;20462;-54
2022/06/30 07:44:43;;;;;;;3.87;3.47;;;38.90;90.40;;;;;;5012438;28;20466;-56
2022/06/30 07:47:11;;;;;;;4.90;4.40;;;40.50;81.30;;;;;;5012627;28;20431;-54
2022/06/30 07:49:40;;;;;;;5.20;3.60;;;39.40;80.30;;;;;;5012358;28;20515;-52
2022/06/30 07:52:08;;;;;;;4.13;3.73;;;38.50;82.90;;;;;;5012796;28;20536;-50
2022/06/30 07:54:41;;;;;;;3.83;3.50;;;38.90;81.60;;;;;;5012482;28;20642;-55
2022/06/30 07:57:08;;;;;;;3.93;3.63;;;40.30;78.70;;;;;;5012826;28;20562;-52
2022/06/30 07:59:55;;;;;;;4.27;3.87;;;40.40;79.00;;;;;;5013594;28;20475;-50
2022/06/30 08:02:23;;;;;;;4.40;4.10;;;40.30;76.80;;;;;;5012323;28;20454;-54
2022/06/30 08:04:50;;;;;;;11.87;4.40;;;38.60;78.40;;;;;;5013053;28;20501;-52
2022/06/30 08:07:17;;;;;;;4.30;3.90;;;38.20;84.60;;;;;;5012311;28;20537;-49
2022/06/30 08:09:47;;;;;;;4.27;3.97;;;37.70;83.80;;;;;;5020539;28;20438;-53
2022/06/30 08:12:15;;;;;;;6.13;4.73;;;35.60;90.50;;;;;;5015639;28;20677;-53
2022/06/30 08:14:42;;;;;;;4.97;4.47;;;37.10;88.80;;;;;;5016425;28;20435;-54
2022/06/30 08:17:10;;;;;;;4.77;4.37;;;38.10;82.20;;;;;;5024080;28;20446;-53
2022/06/30 08:19:38;;;;;;;5.20;4.70;;;38.40;80.50;;;;;;5031303;28;20452;-54
2022/06/30 08:22:06;;;;;;;5.80;4.27;;;37.70;85.30;;;;;;5029562;28;20505;-53
2022/06/30 08:24:37;;;;;;;8.53;5.43;;;38.10;84.80;;;;;;5015558;28;20477;-51
2022/06/30 08:27:05;;;;;;;7.70;6.10;;;38.70;82.90;;;;;;5030676;28;20430;-52
2022/06/30 08:29:35;;;;;;;5.33;4.90;;;38.50;80.50;;;;;;5019813;28;20458;-53
2022/06/30 08:32:04;;;;;;;7.60;5.67;;;39.40;77.50;;;;;;5020370;28;20485;-53
2022/06/30 08:34:31;;;;;;;6.30;5.13;;;39.10;76.90;;;;;;5019981;28;20435;-49
2022/06/30 08:36:58;;;;;;;5.40;4.93;;;38.40;79.70;;;;;;5020350;28;20442;-55
2022/06/30 08:42:13;;;;;;;7.87;5.30;;;40.70;74.30;;;;;;5020342;28;20462;-54
2022/06/30 08:44:43;;;;;;;5.33;4.90;;;41.10;72.20;;;;;;5022746;28;20513;-53
2022/06/30 08:47:12;;;;;;;6.47;5.33;;;39.40;74.30;;;;;;5025218;28;20454;-51
2022/06/30 08:49:39;;;;;;;8.03;7.43;;;39.40;75.60;;;;;;5019985;28;20682;-54
2022/06/30 08:52:10;;;;;;;5.53;5.00;;;40.80;74.10;;;;;;5020021;28;20465;-52
2022/06/30 08:54:39;;;;;;;7.10;6.40;;;41.90;70.40;;;;;;5018285;28;20485;-53
2022/06/30 08:57:06;;;;;;;7.10;6.40;;;40.20;72.60;;;;;;5024491;28;20434;-53
2022/06/30 08:59:36;;;;;;;8.37;7.67;;;39.10;79.30;;;;;;5021397;28;20615;-54
2022/06/30 09:02:05;;;;;;;6.63;5.93;;;38.10;80.10;;;;;;5027737;28;20508;-51
2022/06/30 09:04:32;;;;;;;6.33;5.83;;;40.60;74.90;;;;;;5019631;28;20474;-55
2022/06/30 09:06:59;;;;;;;10.10;9.07;;;41.10;73.90;;;;;;5019128;28;20449;-50
2022/06/30 09:09:27;;;;;;;7.93;7.27;;;41.40;71.50;;;;;;5020550;28;20773;-50
2022/06/30 09:11:56;;;;;;;8.33;7.53;;;41.80;69.10;;;;;;5015218;28;20451;-51
2022/06/30 09:14:34;;;;;;;8.67;7.87;;;42.30;69.10;;;;;;5016695;28;20440;-53
2022/06/30 09:17:03;;;;;;;8.70;8.00;;;42.40;65.60;;;;;;5007970;28;20507;-49
2022/06/30 09:19:31;;;;;;;7.80;6.73;;;41.50;68.10;;;;;;5033999;28;20472;-50
2022/06/30 09:22:10;;;;;;;10.20;6.83;;;40.90;70.70;;;;;;5014708;28;20470;-50
2022/06/30 09:24:38;;;;;;;8.03;7.33;;;41.70;69.40;;;;;;5010579;28;20487;-52
2022/06/30 09:27:10;;;;;;;8.20;7.30;;;41.80;68.20;;;;;;5017827;28;20465;-52
2022/06/30 09:30:09;;;;;;;8.87;8.17;;;41.80;68.10;;;;;;5021552;28;20431;-53
2022/06/30 09:33:00;;;;;;;8.20;6.60;;;40.30;69.50;;;;;;5021468;28;20458;-47
2022/06/30 09:35:30;;;;;;;8.13;7.40;;;39.90;72.80;;;;;;5018117;28;20628;-52
2022/06/30 09:38:09;;;;;;;13.43;8.37;;;39.90;73.80;;;;;;5018375;28;20673;-53
2022/06/30 09:41:00;;;;;;;8.50;7.80;;;38.60;77.00;;;;;;5019386;28;20454;-54
2022/06/30 09:43:32;;;;;;;8.20;7.50;;;37.00;84.60;;;;;;5023037;28;20799;-51
2022/06/30 09:46:00;;;;;;;8.13;7.33;;;36.00;89.00;;;;;;5022952;28;20665;-50
2022/06/30 09:48:32;;;;;;;7.97;7.10;;;35.10;92.30;;;;;;5023158;28;20433;-55
2022/06/30 09:51:01;;;;;;;8.77;7.97;;;34.20;94.40;;;;;;5021961;28;20446;-51
2022/06/30 09:53:30;;;;;;;10.47;6.67;;;33.60;96.00;;;;;;5021972;28;20693;-48
2022/06/30 09:56:13;;;;;;;7.30;6.70;;;33.30;98.90;;;;;;5018776;28;20442;-48
2022/06/30 09:58:42;;;;;;;6.50;6.00;;;33.10;99.40;;;;;;5022561;28;20765;-47
2022/06/30 10:01:10;;;;;;;7.87;6.50;;;33.00;99.90;;;;;;5025589;28;20447;-53
2022/06/30 10:03:59;;;;;;;7.07;6.27;;;32.80;99.90;;;;;;5027102;28;20476;-55
2022/06/30 10:06:27;;;;;;;10.47;9.27;;;32.50;99.90;;;;;;5025390;28;20475;-53
2022/06/30 10:08:56;;;;;;;9.07;6.67;;;32.10;99.90;;;;;;5011897;28;20610;-47
2022/06/30 10:11:24;;;;;;;6.63;6.03;;;32.00;99.90;;;;;;5022710;28;20634;-50
2022/06/30 10:13:52;;;;;;;6.67;6.00;;;31.90;99.90;;;;;;5021546;28;20520;-49
2022/06/30 10:16:21;;;;;;;6.90;6.30;;;31.30;99.90;;;;;;5017476;28;20460;-48
2022/06/30 10:18:49;;;;;;;6.43;5.70;;;31.20;99.90;;;;;;5015282;28;20523;-51
2022/06/30 10:21:20;;;;;;;10.40;6.33;;;31.50;99.90;;;;;;5014625;28;20775;-51
2022/06/30 10:23:49;;;;;;;7.70;5.23;;;31.40;99.90;;;;;;5010675;28;20457;-49
2022/06/30 10:29:10;;;;;;;6.30;5.70;;;31.30;99.90;;;;;;4990557;28;20480;-50
2022/06/30 10:31:51;;;;;;;5.87;5.37;;;30.90;99.90;;;;;;5020740;28;20444;-51
2022/06/30 10:34:32;;;;;;;9.33;6.90;;;30.60;99.90;;;;;;5011286;28;20614;-49
2022/06/30 10:37:20;;;;;;;7.00;6.30;;;30.70;99.90;;;;;;5010827;28;20566;-49
2022/06/30 10:39:50;;;;;;;5.70;5.30;;;31.10;99.90;;;;;;5014269;28;20437;-50
2022/06/30 10:42:46;;;;;;;6.93;6.27;;;31.30;99.90;;;;;;5014449;28;20458;-47
2022/06/30 10:45:55;;;;;;;6.50;5.97;;;31.30;99.90;;;;;;5016603;28;20485;-51
2022/06/30 10:48:23;;;;;;;5.83;5.33;;;31.00;99.90;;;;;;5031630;28;20490;-49
2022/06/30 10:50:52;;;;;;;8.03;6.20;;;31.00;99.90;;;;;;5025504;28;20443;-47
2022/06/30 10:53:38;;;;;;;6.97;6.37;;;30.60;99.90;;;;;;5021330;28;20490;-46
2022/06/30 10:56:06;;;;;;;6.00;5.50;;;30.20;99.90;;;;;;5019265;28;20430;-54
2022/06/30 10:58:34;;;;;;;6.90;6.07;;;30.30;99.90;;;;;;5022250;28;20461;-48
2022/06/30 11:01:05;;;;;;;7.90;5.77;;;30.70;99.90;;;;;;5019241;28;20437;-53
2022/06/30 11:03:34;;;;;;;6.27;5.67;;;31.30;99.90;;;;;;5030950;28;20543;-48
2022/06/30 11:06:06;;;;;;;7.03;6.30;;;31.70;99.90;;;;;;5021326;28;20494;-49
2022/06/30 11:08:36;;;;;;;5.70;5.17;;;31.80;99.90;;;;;;5021806;28;20433;-54
2022/06/30 11:11:22;;;;;;;10.07;5.60;;;31.60;99.90;;;;;;5021739;28;20435;-50
2022/06/30 11:14:02;;;;;;;6.50;6.00;;;31.60;99.90;;;;;;5019833;28;20494;-51
2022/06/30 11:16:31;;;;;;;6.13;5.63;;;31.30;99.90;;;;;;5012743;28;20443;-50
2022/06/30 11:18:59;;;;;;;7.00;6.30;;;31.50;99.90;;;;;;5015356;28;20457;-51
2022/06/30 11:21:29;;;;;;;6.50;5.90;;;31.80;99.90;;;;;;5012849;28;20466;-50
2022/06/30 11:24:02;;;;;;;5.47;5.07;;;32.20;99.90;;;;;;5009531;28;20459;-46
2022/06/30 11:29:17;;;;;;;5.97;5.47;;;32.20;99.90;;;;;;5010335;28;20833;-50
2022/06/30 11:31:46;;;;;;;5.63;5.10;;;32.40;99.90;;;;;;5017975;28;20535;-49
2022/06/30 11:34:20;;;;;;;6.40;5.90;;;32.50;99.90;;;;;;5009964;28;20435;-48
2022/06/30 11:36:48;;;;;;;5.50;4.87;;;32.40;99.90;;;;;;5009825;28;20635;-50
2022/06/30 11:39:18;;;;;;;6.97;6.43;;;32.30;99.90;;;;;;5014406;28;20450;-53
2022/06/30 11:41:56;;;;;;;6.77;6.20;;;32.20;99.90;;;;;;5012054;28;20484;-54
2022/06/30 11:44:38;;;;;;;14.00;6.67;;;32.10;99.90;;;;;;5020151;28;20448;-49
2022/06/30 11:47:10;;;;;;;6.30;5.30;;;31.90;99.90;;;;;;5014682;28;20438;-50
2022/06/30 11:49:43;;;;;;;6.97;6.30;;;31.90;99.90;;;;;;5016372;28;20488;-49
2022/06/30 11:52:14;;;;;;;6.77;6.17;;;32.00;99.90;;;;;;5019920;28;20461;-49
2022/06/30 11:54:47;;;;;;;6.30;5.70;;;31.90;99.90;;;;;;5020608;28;20445;-54
2022/06/30 11:57:15;;;;;;;5.00;4.60;;;31.90;99.90;;;;;;5020875;28;20547;-48
2022/06/30 11:59:53;;;;;;;6.70;5.33;;;32.00;99.90;;;;;;5016381;28;20676;-50
2022/06/30 12:02:20;;;;;;;6.40;5.70;;;32.00;99.90;;;;;;5019082;28;20524;-49
2022/06/30 12:04:55;;;;;;;6.37;5.87;;;32.00;99.90;;;;;;5017022;28;20509;-49
2022/06/30 12:07:23;;;;;;;5.90;5.07;;;32.00;99.90;;;;;;5020377;28;20453;-50
2022/06/30 12:09:51;;;;;;;5.60;5.10;;;32.00;99.90;;;;;;5020435;28;20427;-49
2022/06/30 12:12:26;;;;;;;6.07;5.47;;;32.10;99.90;;;;;;5020413;28;20589;-54
2022/06/30 12:14:56;;;;;;;5.67;5.17;;;32.10;99.90;;;;;;5009311;28;20645;-49
2022/06/30 12:17:29;;;;;;;6.07;5.57;;;32.20;99.90;;;;;;5009408;28;20431;-51
2022/06/30 12:19:56;;;;;;;6.70;6.20;;;32.30;99.90;;;;;;5015561;28;20442;-48
2022/06/30 12:22:24;;;;;;;5.27;4.77;;;32.40;99.90;;;;;;5009624;28;20521;-52
2022/06/30 12:24:53;;;;;;;6.13;5.63;;;32.30;99.90;;;;;;5011921;28;20445;-49
2022/06/30 12:27:29;;;;;;;5.50;5.00;;;32.00;99.90;;;;;;5012780;28;20438;-47
2022/06/30 12:30:01;;;;;;;6.30;5.80;;;32.00;99.90;;;;;;5013899;28;20498;-53
2022/06/30 12:32:29;;;;;;;5.70;5.27;;;32.10;99.90;;;;;;5012079;28;20654;-47
2022/06/30 12:35:04;;;;;;;5.77;5.23;;;31.90;99.90;;;;;;5011867;28;20456;-48
2022/06/30 12:37:38;;;;;;;6.73;6.00;;;32.00;99.90;;;;;;5012102;28;20485;-50
2022/06/30 12:40:10;;;;;;;5.60;5.10;;;32.20;99.90;;;;;;5012375;28;20441;-51
2022/06/30 12:42:44;;;;;;;4.90;4.40;;;32.30;99.90;;;;;;5012221;28;20457;-50
2022/06/30 12:46:09;;;;;;;5.80;4.60;;;32.40;99.90;;;;;;5012213;28;20441;-52
2022/06/30 12:48:46;;;;;;;5.40;4.80;;;32.60;99.90;;;;;;5016892;28;20504;-48
2022/06/30 12:51:16;;;;;;;5.23;4.80;;;32.80;99.90;;;;;;5012764;28;20481;-50
2022/06/30 12:53:45;;;;;;;5.43;4.97;;;32.60;99.90;;;;;;5019295;28;20482;-51
2022/06/30 12:56:21;;;;;;;5.77;5.27;;;32.40;99.90;;;;;;5019921;28;20493;-51
2022/06/30 12:58:49;;;;;;;6.23;4.90;;;32.20;99.90;;;;;;5014697;28;20491;-49
2022/06/30 13:01:23;;;;;;;7.07;6.37;;;32.00;99.90;;;;;;5019277;28;20443;-47
2022/06/30 13:04:02;;;;;;;8.17;4.43;;;31.80;99.90;;;;;;5013327;28;20476;-47
2022/06/30 13:06:36;;;;;;;5.87;4.40;;;31.70;99.90;;;;;;5019793;28;20480;-46
2022/06/30 13:09:06;;;;;;;5.20;4.80;;;31.90;99.90;;;;;;5019861;28;20779;-48
2022/06/30 13:11:37;;;;;;;4.23;3.80;;;32.10;99.90;;;;;;5018252;28;20438;-48
2022/06/30 13:14:05;;;;;;;4.27;3.97;;;32.40;99.90;;;;;;5016322;28;20699;-50
2022/06/30 13:16:32;;;;;;;4.07;3.77;;;32.40;99.90;;;;;;5008155;28;20442;-51
2022/06/30 13:19:04;;;;;;;5.40;4.93;;;32.20;99.90;;;;;;5008698;28;20443;-52
2022/06/30 13:21:31;;;;;;;5.00;3.60;;;32.00;99.90;;;;;;5016145;28;20441;-46
2022/06/30 13:23:58;;;;;;;3.33;3.03;;;32.00;99.90;;;;;;5013908;28;20861;-51
2022/06/30 13:26:26;;;;;;;4.40;4.10;;;32.20;99.90;;;;;;5011213;28;20481;-52
2022/06/30 13:28:54;;;;;;;4.37;3.97;;;32.30;99.90;;;;;;5013124;28;20656;-46